Time;durP1;ratioP1;P1;durP2;ratioP2;P2;SDS_P1;SDS_P2;PMS_P1;PMS_P2;Temp;Humidity;BMP_temperature;BMP_pressure;BME280_temperature;BME280_humidity;BME280_pressure;Samples;Min_cycle;Max_cycle;Signal;HPM_P1;HPM_P2
2023/11/04 00:00:24;;;;;;;5.00;1.40;;;;;;;10.88;100.00;98603.69;5262500;28;20032;-72
2023/11/04 00:02:54;;;;;;;3.13;1.23;;;;;;;11.00;100.00;98599.25;5263187;28;20035;-72
2023/11/04 00:05:25;;;;;;;2.85;1.48;;;;;;;10.97;100.00;98607.72;5265390;28;20056;-72
2023/11/04 00:07:55;;;;;;;4.43;1.58;;;;;;;11.04;100.00;98613.81;5264538;28;20069;-72
2023/11/04 00:10:26;;;;;;;5.45;1.20;;;;;;;11.11;100.00;98613.75;5262737;28;20091;-72
2023/11/04 00:12:57;;;;;;;6.20;1.40;;;;;;;11.18;100.00;98613.69;5267040;28;20028;-72
2023/11/04 00:15:28;;;;;;;9.82;1.42;;;;;;;11.03;100.00;98606.81;5266835;28;20051;-72
2023/11/04 00:17:58;;;;;;;6.50;1.58;;;;;;;11.05;100.00;98609.31;5262533;28;20028;-72
2023/11/04 00:20:29;;;;;;;5.00;1.85;;;;;;;11.17;100.00;98609.38;5263262;28;20030;-72
2023/11/04 00:23:00;;;;;;;2.85;1.50;;;;;;;11.18;100.00;98600.25;5264729;28;20347;-72
2023/11/04 00:25:30;;;;;;;3.45;1.60;;;;;;;11.29;100.00;98597.63;5263672;28;20027;-72
2023/11/04 00:28:01;;;;;;;8.77;1.80;;;;;;;11.29;100.00;98599.50;5265804;28;20098;-72
2023/11/04 00:30:32;;;;;;;5.10;1.90;;;;;;;11.16;100.00;98605.88;5266438;28;20035;-72
2023/11/04 00:33:02;;;;;;;2.80;1.70;;;;;;;11.25;100.00;98609.06;5266156;28;20024;-72
2023/11/04 00:35:33;;;;;;;11.68;4.05;;;;;;;11.26;100.00;98608.84;5265414;28;20028;-72
2023/11/04 00:38:04;;;;;;;4.05;1.60;;;;;;;11.41;100.00;98606.59;5266528;28;20107;-72
2023/11/04 00:40:35;;;;;;;7.53;2.95;;;;;;;11.31;100.00;98608.16;5265914;28;20587;-72
2023/11/04 00:43:06;;;;;;;6.55;2.00;;;;;;;11.34;100.00;98605.81;5266086;28;20027;-73
2023/11/04 00:45:36;;;;;;;5.60;2.00;;;;;;;11.36;100.00;98611.00;5265433;28;20115;-72
2023/11/04 00:48:07;;;;;;;9.85;2.00;;;;;;;11.35;100.00;98612.88;5266044;28;20107;-72
2023/11/04 00:50:37;;;;;;;7.45;2.60;;;;;;;11.35;100.00;98604.00;5265871;28;20028;-72
2023/11/04 00:53:08;;;;;;;3.13;1.67;;;;;;;11.20;100.00;98601.69;5262825;28;20036;-72
2023/11/04 00:55:38;;;;;;;4.85;2.00;;;;;;;11.35;100.00;98604.00;5265509;28;20477;-72
2023/11/04 00:58:09;;;;;;;5.75;2.08;;;;;;;11.38;100.00;98598.97;5265939;28;20028;-72
2023/11/04 01:00:39;;;;;;;4.85;2.55;;;;;;;11.28;100.00;98608.59;5263748;28;20115;-72
2023/11/04 01:03:10;;;;;;;16.45;2.40;;;;;;;11.41;100.00;98603.91;5265861;28;20065;-72
2023/11/04 01:05:40;;;;;;;6.47;2.00;;;;;;;11.48;100.00;98606.50;5264456;28;20034;-73
2023/11/04 01:08:11;;;;;;;9.02;2.15;;;;;;;11.51;100.00;98600.69;5265621;28;20110;-72
2023/11/04 01:10:41;;;;;;;8.57;2.40;;;;;;;11.49;100.00;98597.38;5262407;28;20085;-72
2023/11/04 01:13:12;;;;;;;5.28;1.80;;;;;;;11.43;100.00;98595.59;5265055;28;20039;-72
2023/11/04 01:15:43;;;;;;;5.20;2.08;;;;;;;11.45;100.00;98598.91;5264138;28;20028;-72
2023/11/04 01:18:13;;;;;;;5.05;2.33;;;;;;;11.46;100.00;98591.66;5265255;28;20546;-72
2023/11/04 01:20:44;;;;;;;4.43;1.80;;;;;;;11.56;100.00;98590.06;5264499;28;20591;-72
2023/11/04 01:23:14;;;;;;;5.50;2.00;;;;;;;11.58;100.00;98587.16;5264209;28;20077;-72
2023/11/04 01:25:45;;;;;;;6.25;2.00;;;;;;;11.70;100.00;98595.25;5260273;28;20028;-72
2023/11/04 01:28:15;;;;;;;7.07;2.50;;;;;;;11.53;100.00;98595.06;5264917;28;20024;-72
2023/11/04 01:30:46;;;;;;;4.47;2.30;;;;;;;11.52;100.00;98594.25;5264333;28;20556;-72
2023/11/04 01:33:16;;;;;;;6.65;2.35;;;;;;;11.52;100.00;98591.56;5264866;28;20389;-72
2023/11/04 01:35:47;;;;;;;6.13;2.15;;;;;;;11.68;100.00;98590.91;5263407;28;20036;-72
2023/11/04 01:38:17;;;;;;;5.10;2.45;;;;;;;11.61;100.00;98590.22;5262883;28;20046;-72
2023/11/04 01:40:49;;;;;;;7.60;2.42;;;;;;;11.59;100.00;98592.28;5270033;28;20477;-70
2023/11/04 01:43:29;;;;;;;9.93;2.60;;;;;;;11.58;100.00;98584.47;5265530;28;20016;-70
2023/11/04 01:46:07;;;;;;;9.63;2.38;;;;;;;11.45;100.00;98576.63;5268956;28;20405;-70
2023/11/04 01:48:40;;;;;;;5.45;2.28;;;;;;;11.65;100.00;98579.84;5266943;28;20043;-70
2023/11/04 01:51:14;;;;;;;7.47;2.38;;;;;;;11.68;100.00;98577.50;5267964;28;20080;-71
2023/11/04 01:53:48;;;;;;;7.78;2.50;;;;;;;11.56;100.00;98582.03;5269676;28;20028;-71
2023/11/04 01:56:24;;;;;;;5.80;2.40;;;;;;;11.43;100.00;98578.69;5267886;28;20050;-71
2023/11/04 01:58:56;;;;;;;4.63;2.55;;;;;;;11.46;100.00;98573.69;5272074;28;20011;-71
2023/11/04 02:01:27;;;;;;;8.23;2.28;;;;;;;11.37;100.00;98570.50;5270879;28;20032;-71
2023/11/04 02:03:58;;;;;;;6.97;2.40;;;;;;;11.34;100.00;98572.81;5267079;28;20016;-71
2023/11/04 02:06:29;;;;;;;7.28;2.60;;;;;;;11.33;100.00;98576.53;5267147;28;20059;-71
2023/11/04 02:08:59;;;;;;;7.82;2.67;;;;;;;11.34;100.00;98573.63;5269244;28;20028;-71
2023/11/04 02:11:30;;;;;;;5.07;2.20;;;;;;;11.25;100.00;98566.94;5260185;28;20032;-71
2023/11/04 02:14:01;;;;;;;5.00;2.55;;;;;;;11.31;100.00;98557.97;5266679;28;20026;-71
2023/11/04 02:16:31;;;;;;;6.40;2.60;;;;;;;11.38;100.00;98565.94;5263631;28;20035;-71
2023/11/04 02:19:02;;;;;;;6.35;2.63;;;;;;;11.40;100.00;98569.22;5269720;28;20019;-71
2023/11/04 02:21:33;;;;;;;8.02;2.63;;;;;;;11.38;100.00;98565.94;5269468;28;20034;-71
2023/11/04 02:24:04;;;;;;;7.15;2.63;;;;;;;11.33;100.00;98561.25;5265076;28;20028;-71
2023/11/04 02:26:35;;;;;;;10.82;2.45;;;;;;;11.47;100.00;98559.22;5265757;28;20060;-71
2023/11/04 02:29:05;;;;;;;7.30;2.35;;;;;;;11.37;100.00;98564.31;5269318;28;20016;-71
2023/11/04 02:31:36;;;;;;;14.13;2.47;;;;;;;11.40;100.00;98553.13;5269699;28;20034;-71
2023/11/04 02:34:07;;;;;;;6.10;2.33;;;;;;;11.37;100.00;98557.06;5267870;28;20024;-71
2023/11/04 02:36:37;;;;;;;10.48;2.88;;;;;;;11.37;100.00;98559.75;5268317;28;20031;-71
2023/11/04 02:39:09;;;;;;;6.57;2.33;;;;;;;11.39;100.00;98546.91;5269391;28;20039;-71
2023/11/04 02:41:39;;;;;;;8.93;2.22;;;;;;;11.49;100.00;98550.91;5269767;28;20040;-71
2023/11/04 02:44:09;;;;;;;7.72;2.47;;;;;;;11.36;100.00;98549.25;5268577;28;20043;-71
2023/11/04 02:46:40;;;;;;;7.45;2.72;;;;;;;11.32;100.00;98548.88;5266975;28;20106;-71
2023/11/04 02:49:11;;;;;;;11.07;2.50;;;;;;;11.48;100.00;98547.41;5266016;28;20821;-71
2023/11/04 02:51:41;;;;;;;5.43;3.08;;;;;;;11.44;100.00;98542.72;5267738;28;20106;-71
2023/11/04 02:54:19;;;;;;;7.65;2.80;;;;;;;11.42;100.00;98534.91;5269873;28;20020;-71
2023/11/04 02:56:49;;;;;;;7.60;2.50;;;;;;;11.38;100.00;98541.78;5269834;28;20438;-71
2023/11/04 02:59:20;;;;;;;7.80;2.90;;;;;;;11.46;100.00;98536.09;5267986;28;20020;-71
2023/11/04 03:01:51;;;;;;;12.20;3.10;;;;;;;11.39;100.00;98530.81;5270667;28;20364;-71
2023/11/04 03:04:22;;;;;;;5.78;2.60;;;;;;;11.46;100.00;98530.72;5266373;28;20097;-71
2023/11/04 03:06:52;;;;;;;9.10;2.83;;;;;;;11.34;100.00;98529.84;5270058;28;20130;-71
2023/11/04 03:09:23;;;;;;;7.63;2.85;;;;;;;11.33;100.00;98528.22;5263938;28;20541;-71
2023/11/04 03:11:56;;;;;;;12.20;2.83;;;;;;;11.28;100.00;98520.03;5268165;28;20028;-71
2023/11/04 03:14:27;;;;;;;9.02;2.80;;;;;;;11.27;100.00;98519.22;5261648;28;20044;-71
2023/11/04 03:16:57;;;;;;;12.48;2.80;;;;;;;11.22;100.00;98518.25;5267854;28;20058;-71
2023/11/04 03:19:28;;;;;;;5.82;2.78;;;;;;;11.29;100.00;98524.34;5267880;28;20024;-71
2023/11/04 03:21:58;;;;;;;11.20;3.17;;;;;;;11.11;100.00;98515.28;5267750;28;20031;-71
2023/11/04 03:24:29;;;;;;;9.45;2.97;;;;;;;11.15;100.00;98515.66;5262939;28;20093;-71
2023/11/04 03:26:59;;;;;;;12.98;3.13;;;;;;;11.18;100.00;98507.16;5271340;28;21360;-71
2023/11/04 03:29:30;;;;;;;9.27;3.20;;;;;;;11.15;100.00;98502.25;5272291;28;20473;-71
2023/11/04 03:32:00;;;;;;;8.68;2.92;;;;;;;11.25;100.00;98512.44;5273896;28;20020;-71
2023/11/04 03:34:32;;;;;;;11.45;3.13;;;;;;;11.26;100.00;98498.78;5271749;28;20028;-71
2023/11/04 03:37:02;;;;;;;9.07;2.92;;;;;;;11.28;100.00;98502.06;5272487;28;20362;-71
2023/11/04 03:39:33;;;;;;;12.57;3.22;;;;;;;11.13;100.00;98491.72;5271999;28;20031;-71
2023/11/04 03:42:03;;;;;;;8.23;3.22;;;;;;;11.15;100.00;98486.16;5269441;28;20062;-71
2023/11/04 03:44:34;;;;;;;9.25;2.88;;;;;;;11.26;100.00;98493.44;5271279;28;20053;-71
2023/11/04 03:47:04;;;;;;;11.77;3.03;;;;;;;11.20;100.00;98490.84;5271044;28;20058;-71
2023/11/04 03:49:35;;;;;;;18.50;4.18;;;;;;;11.24;100.00;98487.44;5271647;28;20035;-72
2023/11/04 03:52:06;;;;;;;12.80;3.13;;;;;;;11.22;100.00;98481.50;5271821;28;20037;-72
2023/11/04 03:54:37;;;;;;;9.07;3.75;;;;;;;11.19;100.00;98476.56;5266859;28;20508;-72
2023/11/04 03:57:07;;;;;;;12.07;3.72;;;;;;;11.08;100.00;98478.19;5273404;28;20031;-72
2023/11/04 03:59:38;;;;;;;10.60;3.90;;;;;;;11.23;100.00;98472.41;5269712;28;20480;-71
2023/11/04 04:02:08;;;;;;;19.88;3.95;;;;;;;10.96;100.00;98468.44;5273421;28;20066;-72
2023/11/04 04:04:39;;;;;;;10.50;3.70;;;;;;;10.92;100.00;98469.94;5268297;28;20035;-71
2023/11/04 04:07:09;;;;;;;9.27;3.33;;;;;;;10.92;100.00;98462.72;5273205;28;20028;-72
2023/11/04 04:09:40;;;;;;;15.77;3.58;;;;;;;10.93;100.00;98450.13;5265200;28;20024;-71
2023/11/04 04:12:10;;;;;;;12.40;3.33;;;;;;;10.76;100.00;98453.44;5271921;28;20039;-72
2023/11/04 04:14:44;;;;;;;12.27;3.65;;;;;;;10.95;100.00;98462.28;5269945;28;20366;-71
2023/11/04 04:17:15;;;;;;;8.75;3.25;;;;;;;10.82;100.00;98449.03;5270268;28;20477;-72
2023/11/04 04:19:47;;;;;;;11.35;3.63;;;;;;;10.77;100.00;98447.00;5270811;28;20031;-72
2023/11/04 04:22:18;;;;;;;9.30;3.40;;;;;;;10.93;100.00;98445.56;5267219;28;20028;-72
2023/11/04 04:24:48;;;;;;;11.07;3.80;;;;;;;10.79;100.00;98444.09;5264106;28;21643;-72
2023/11/04 04:27:19;;;;;;;20.63;3.80;;;;;;;10.88;100.00;98435.50;5269193;28;20028;-71
2023/11/04 04:29:49;;;;;;;7.93;3.22;;;;;;;10.98;100.00;98431.47;5271095;28;20459;-72
2023/11/04 04:32:20;;;;;;;12.55;3.55;;;;;;;10.91;100.00;98430.75;5269669;28;20019;-74
2023/11/04 04:34:50;;;;;;;12.40;3.80;;;;;;;10.81;100.00;98425.94;5270124;28;20133;-72
2023/11/04 04:37:20;;;;;;;8.80;3.67;;;;;;;10.88;100.00;98418.59;5270267;28;20020;-71
2023/11/04 04:39:51;;;;;;;9.25;2.90;;;;;;;10.91;100.00;98425.41;5270801;28;20032;-71
2023/11/04 04:42:21;;;;;;;16.58;3.13;;;;;;;10.83;100.00;98416.59;5270151;28;20080;-71
2023/11/04 04:44:52;;;;;;;15.52;3.70;;;;;;;10.78;100.00;98413.78;5266796;28;20055;-71
2023/11/04 04:47:22;;;;;;;10.20;3.17;;;;;;;10.74;100.00;98411.78;5269932;28;20024;-72
2023/11/04 04:49:53;;;;;;;11.07;2.95;;;;;;;10.80;100.00;98418.94;5270169;28;20036;-71
2023/11/04 04:52:23;;;;;;;9.15;2.95;;;;;;;10.74;100.00;98412.59;5269850;28;20062;-71
2023/11/04 04:54:54;;;;;;;14.40;3.30;;;;;;;10.74;100.00;98414.47;5269711;28;20060;-71
2023/11/04 04:57:25;;;;;;;11.70;2.95;;;;;;;10.65;100.00;98405.13;5269990;28;20032;-71
2023/11/04 04:59:56;;;;;;;9.35;3.08;;;;;;;10.54;100.00;98398.63;5269254;28;20528;-71
2023/11/04 05:02:26;;;;;;;11.35;2.60;;;;;;;10.58;100.00;98394.44;5269202;28;20060;-71
2023/11/04 05:04:57;;;;;;;9.57;2.88;;;;;;;10.46;100.00;98391.72;5269382;28;20058;-71
2023/11/04 05:07:28;;;;;;;13.95;2.63;;;;;;;10.47;100.00;98379.94;5269507;28;20134;-72
2023/11/04 05:09:58;;;;;;;10.93;2.80;;;;;;;10.48;100.00;98376.22;5265063;28;20023;-72
2023/11/04 05:12:29;;;;;;;15.00;2.80;;;;;;;10.40;100.00;98367.69;5263249;28;20057;-71
2023/11/04 05:14:59;;;;;;;10.90;2.50;;;;;;;10.44;100.00;98366.16;5268682;28;20028;-71
2023/11/04 05:17:30;;;;;;;10.57;2.42;;;;;;;10.32;100.00;98356.22;5268618;28;20031;-72
2023/11/04 05:20:00;;;;;;;17.25;2.60;;;;;;;10.26;100.00;98350.94;5269661;28;20032;-71
2023/11/04 05:22:31;;;;;;;12.88;2.25;;;;;;;10.34;100.00;98359.50;5268378;28;20024;-71
2023/11/04 05:25:03;;;;;;;11.27;2.88;;;;;;;10.16;100.00;98353.31;5259246;28;20028;-71
2023/11/04 05:27:33;;;;;;;13.70;2.53;;;;;;;10.31;100.00;98356.44;5268305;28;20114;-71
2023/11/04 05:30:06;;;;;;;7.95;2.13;;;;;;;10.20;100.00;98355.31;5267570;28;20107;-71
2023/11/04 05:32:37;;;;;;;10.10;2.85;;;;;;;10.11;100.00;98354.78;5265895;28;20032;-72
2023/11/04 05:35:08;;;;;;;5.95;2.00;;;;;;;10.17;100.00;98349.56;5268396;28;20053;-71
2023/11/04 05:37:39;;;;;;;12.05;3.47;;;;;;;10.15;100.00;98349.00;5267820;28;20497;-71
2023/11/04 05:40:10;;;;;;;18.33;2.92;;;;;;;10.23;100.00;98343.31;5267546;28;20047;-71
2023/11/04 05:42:40;;;;;;;6.93;2.15;;;;;;;10.04;100.00;98340.66;5266427;28;20106;-71
2023/11/04 05:45:14;;;;;;;18.13;3.25;;;;;;;10.03;100.00;98338.19;5261013;28;20032;-71
2023/11/04 05:47:45;;;;;;;12.48;2.75;;;;;;;10.10;100.00;98347.81;5263690;28;20085;-72
2023/11/04 05:50:16;;;;;;;8.88;2.30;;;;;;;10.11;100.00;98336.03;5265241;28;20020;-72
2023/11/04 05:52:48;;;;;;;18.25;2.72;;;;;;;10.04;100.00;98332.63;5260015;28;20039;-71
2023/11/04 05:55:18;;;;;;;8.55;2.53;;;;;;;10.05;100.00;98336.13;5261808;28;20102;-71
2023/11/04 05:57:49;;;;;;;13.20;2.40;;;;;;;9.95;100.00;98339.31;5264351;28;20127;-71
2023/11/04 06:00:19;;;;;;;17.60;3.08;;;;;;;9.94;100.00;98329.66;5261560;28;20100;-71
2023/11/04 06:02:50;;;;;;;12.05;2.63;;;;;;;9.99;100.00;98311.06;5261937;28;20032;-71
2023/11/04 06:05:20;;;;;;;12.23;2.45;;;;;;;10.06;100.00;98308.28;5261403;28;20490;-71
2023/11/04 06:07:51;;;;;;;12.75;2.40;;;;;;;9.99;100.00;98305.69;5260357;28;20052;-71
2023/11/04 06:10:21;;;;;;;5.60;2.35;;;;;;;9.95;100.00;98296.47;5260619;28;20478;-71
2023/11/04 06:12:52;;;;;;;8.55;2.00;;;;;;;9.92;100.00;98304.94;5259867;28;20032;-72
2023/11/04 06:15:23;;;;;;;16.23;2.53;;;;;;;9.93;100.00;98301.22;5262658;28;20024;-72
2023/11/04 06:17:53;;;;;;;10.35;2.10;;;;;;;9.96;100.00;98306.13;5257769;28;20059;-72
2023/11/04 06:20:23;;;;;;;12.55;2.20;;;;;;;9.97;100.00;98304.28;5263540;28;20050;-72
2023/11/04 06:22:54;;;;;;;11.40;2.35;;;;;;;9.93;100.00;98295.84;5262716;28;20024;-72
2023/11/04 06:25:24;;;;;;;14.85;2.00;;;;;;;9.97;100.00;98304.28;5254448;28;20032;-71
2023/11/04 06:27:55;;;;;;;10.45;2.42;;;;;;;9.98;100.00;98298.69;5265826;28;20032;-71
2023/11/04 06:30:25;;;;;;;11.07;3.00;;;;;;;9.93;100.00;98279.78;5257479;28;20024;-71
2023/11/04 06:32:56;;;;;;;12.32;2.53;;;;;;;9.84;100.00;98281.97;5262485;28;20028;-72
2023/11/04 06:35:28;;;;;;;8.65;1.95;;;;;;;9.83;100.00;98274.97;5262804;28;20401;-71
2023/11/04 06:37:59;;;;;;;13.65;2.40;;;;;;;9.78;100.00;98268.63;5260390;28;20028;-72
2023/11/04 06:40:30;;;;;;;13.32;2.10;;;;;;;9.86;100.00;98271.03;5261316;28;20365;-71
2023/11/04 06:43:01;;;;;;;9.57;2.05;;;;;;;9.83;100.00;98256.22;5263796;28;20036;-71
2023/11/04 06:45:31;;;;;;;6.90;2.13;;;;;;;9.81;100.00;98258.31;5260783;28;20024;-71
2023/11/04 06:48:04;;;;;;;9.27;2.67;;;;;;;9.79;100.00;98251.56;5260611;28;20106;-71
2023/11/04 06:50:36;;;;;;;6.05;2.20;;;;;;;9.78;100.00;98244.53;5260871;28;20098;-71
2023/11/04 06:53:06;;;;;;;8.40;2.70;;;;;;;9.72;100.00;98245.44;5259898;28;20024;-71
2023/11/04 06:55:37;;;;;;;4.85;2.10;;;;;;;9.73;100.00;98237.19;5262783;28;20039;-71
2023/11/04 06:58:09;;;;;;;17.05;2.63;;;;;;;9.71;100.00;98233.09;5263103;28;20023;-71
2023/11/04 07:00:40;;;;;;;10.25;2.20;;;;;;;9.77;100.00;98233.03;5260252;28;20619;-71
2023/11/04 07:03:10;;;;;;;10.95;2.38;;;;;;;9.62;100.00;98229.09;5259193;28;20020;-71
2023/11/04 07:05:41;;;;;;;15.40;2.90;;;;;;;9.70;100.00;98228.81;5260286;28;20084;-71
2023/11/04 07:08:14;;;;;;;15.10;3.00;;;;;;;9.72;100.00;98213.31;5261671;28;20058;-71
2023/11/04 07:10:45;;;;;;;16.30;2.47;;;;;;;9.79;100.00;98200.69;5259027;28;20039;-71
2023/11/04 07:13:16;;;;;;;6.95;2.10;;;;;;;9.78;100.00;98199.03;5262240;28;20718;-71
2023/11/04 07:15:46;;;;;;;10.52;2.60;;;;;;;9.62;100.00;98191.63;5253472;28;20073;-71
2023/11/04 07:18:17;;;;;;;6.60;2.15;;;;;;;9.78;100.00;98191.81;5261394;28;20023;-71
2023/11/04 07:20:48;;;;;;;14.40;2.83;;;;;;;9.89;100.00;98190.25;5264239;28;20332;-71
2023/11/04 07:23:18;;;;;;;8.05;2.67;;;;;;;9.89;100.00;98181.38;5263724;28;20046;-71
2023/11/04 07:25:49;;;;;;;11.93;2.33;;;;;;;9.89;100.00;98181.38;5256275;28;20114;-71
2023/11/04 07:28:20;;;;;;;13.35;2.75;;;;;;;10.00;100.00;98181.44;5261613;28;20135;-71
2023/11/04 07:30:51;;;;;;;4.35;1.77;;;;;;;10.07;100.00;98179.47;5260527;28;20031;-71
2023/11/04 07:33:22;;;;;;;10.57;2.45;;;;;;;10.12;100.00;98163.53;5261415;28;20666;-71
2023/11/04 07:35:52;;;;;;;9.40;2.42;;;;;;;10.20;100.00;98166.94;5261079;28;20035;-71
2023/11/04 07:38:24;;;;;;;9.40;2.42;;;;;;;10.17;100.00;98157.50;5260371;28;20020;-71
2023/11/04 07:40:57;;;;;;;12.63;2.65;;;;;;;10.25;100.00;98157.22;5259436;28;20032;-71
2023/11/04 07:43:31;;;;;;;13.27;2.67;;;;;;;10.24;100.00;98158.25;5260701;28;20039;-71
2023/11/04 07:46:02;;;;;;;8.33;2.73;;;;;;;10.18;100.00;98161.81;5258508;28;20450;-71
2023/11/04 07:48:32;;;;;;;15.15;2.55;;;;;;;10.20;100.00;98148.19;5259791;28;20055;-71
2023/11/04 07:51:04;;;;;;;11.75;3.25;;;;;;;10.18;100.00;98140.38;5257853;28;20042;-71
2023/11/04 07:53:35;;;;;;;9.30;2.47;;;;;;;10.40;100.00;98142.56;5264325;28;20478;-71
2023/11/04 07:56:06;;;;;;;15.27;3.05;;;;;;;10.41;100.00;98131.59;5258908;28;20059;-71
2023/11/04 07:58:37;;;;;;;10.07;2.55;;;;;;;10.49;100.00;98117.88;5259974;28;20396;-71
2023/11/04 08:01:07;;;;;;;11.73;3.60;;;;;;;10.54;100.00;98112.63;5260966;28;20030;-71
2023/11/04 08:03:38;;;;;;;8.80;2.97;;;;;;;10.70;100.00;98104.94;5260293;28;20040;-71
2023/11/04 08:06:08;;;;;;;11.15;2.60;;;;;;;10.85;100.00;98102.59;5259371;28;20030;-71
2023/11/04 08:08:39;;;;;;;8.25;2.10;;;;;;;11.01;100.00;98093.81;5259398;28;20106;-71
2023/11/04 08:11:10;;;;;;;5.70;1.77;;;;;;;11.03;100.00;98086.34;5256430;28;20214;-71
2023/11/04 08:13:40;;;;;;;6.72;2.10;;;;;;;11.13;100.00;98065.09;5261047;28;20069;-71
2023/11/04 08:16:11;;;;;;;5.30;1.38;;;;;;;11.29;100.00;98060.03;5263498;28;20038;-71
2023/11/04 08:18:41;;;;;;;7.47;2.15;;;;;;;11.45;100.00;98050.41;5263387;28;21609;-72
2023/11/04 08:21:18;;;;;;;12.38;1.77;;;;;;;11.41;100.00;98045.53;5263890;28;20035;-72
2023/11/04 08:23:48;;;;;;;14.10;3.08;;;;;;;11.56;100.00;98042.31;5263042;28;20649;-72
2023/11/04 08:26:19;;;;;;;6.88;1.58;;;;;;;11.53;100.00;98033.91;5259522;28;20024;-72
2023/11/04 08:28:51;;;;;;;10.15;1.98;;;;;;;11.65;100.00;98032.81;5256600;28;20407;-72
2023/11/04 08:31:21;;;;;;;10.55;2.10;;;;;;;11.75;100.00;98026.81;5262589;28;20024;-71
2023/11/04 08:33:52;;;;;;;7.55;1.70;;;;;;;11.66;100.00;98029.06;5263732;28;20039;-71
2023/11/04 08:36:22;;;;;;;11.10;2.50;;;;;;;11.86;100.00;98030.50;5262703;28;20016;-71
2023/11/04 08:38:53;;;;;;;5.28;1.70;;;;;;;11.74;100.00;98037.78;5262406;28;20603;-71
2023/11/04 08:41:23;;;;;;;9.85;2.10;;;;;;;11.63;100.00;98032.22;5263250;28;20082;-72
2023/11/04 08:43:54;;;;;;;6.75;1.50;;;;;;;11.58;100.00;98021.38;5263724;28;20020;-71
2023/11/04 08:46:25;;;;;;;5.60;1.70;;;;;;;11.75;100.00;98013.38;5256556;28;20031;-72
2023/11/04 08:48:55;;;;;;;6.53;1.70;;;;;;;11.56;100.00;98007.41;5262033;28;20445;-72
2023/11/04 08:51:26;;;;;;;8.50;1.58;;;;;;;11.57;100.00;98011.72;5268828;28;20030;-72
2023/11/04 08:53:57;;;;;;;7.80;1.60;;;;;;;11.70;100.00;98010.59;5267623;28;20538;-72
2023/11/04 08:56:28;;;;;;;7.88;1.20;;;;;;;11.75;100.00;98013.38;5257851;28;20044;-73
2023/11/04 08:58:59;;;;;;;6.55;1.95;;;;;;;11.75;100.00;98004.50;5267778;28;20073;-73
2023/11/04 09:01:30;;;;;;;6.78;1.60;;;;;;;11.81;100.00;97990.09;5266763;28;20074;-73
2023/11/04 09:04:04;;;;;;;5.70;1.50;;;;;;;11.76;100.00;98001.56;5250548;28;20043;-73
2023/11/04 09:06:36;;;;;;;4.93;1.50;;;;;;;11.72;100.00;97996.94;5254061;28;20103;-73
2023/11/04 09:09:07;;;;;;;6.70;1.52;;;;;;;11.79;100.00;97989.50;5254357;28;20023;-73
2023/11/04 09:11:39;;;;;;;6.68;1.30;;;;;;;11.74;100.00;97979.50;5252056;28;20577;-73
2023/11/04 09:14:10;;;;;;;4.07;1.10;;;;;;;11.64;100.00;97980.13;5261655;28;20016;-73
2023/11/04 09:16:42;;;;;;;5.40;1.30;;;;;;;11.56;100.00;97985.94;5257721;28;20039;-73
2023/11/04 09:19:12;;;;;;;7.20;1.30;;;;;;;11.65;100.00;97989.84;5271482;28;20020;-73
2023/11/04 09:21:43;;;;;;;7.93;1.33;;;;;;;11.50;100.00;97986.09;5273710;27;20024;-73
2023/11/04 09:24:13;;;;;;;9.45;1.80;;;;;;;11.12;100.00;97976.78;5265070;28;20016;-74
2023/11/04 09:26:45;;;;;;;7.25;1.63;;;;;;;11.31;100.00;97975.53;5259113;28;20405;-74
2023/11/04 09:29:17;;;;;;;4.68;1.27;;;;;;;10.92;100.00;97976.41;5262230;28;20036;-74
2023/11/04 09:31:47;;;;;;;7.38;1.52;;;;;;;10.97;100.00;97969.25;5262863;28;20512;-74
2023/11/04 09:34:18;;;;;;;15.65;3.38;;;;;;;11.00;100.00;97966.13;5261987;28;20024;-73
2023/11/04 09:36:49;;;;;;;11.30;1.83;;;;;;;11.00;100.00;97935.81;5267600;28;20023;-74
2023/11/04 09:39:20;;;;;;;13.68;2.05;;;;;;;10.94;100.00;97918.75;5272038;28;20047;-73
2023/11/04 09:41:51;;;;;;;15.77;2.10;;;;;;;10.70;100.00;97920.75;5263862;28;20063;-73
2023/11/04 09:44:23;;;;;;;13.18;2.17;;;;;;;10.65;100.00;97901.88;5268544;28;20036;-73
2023/11/04 09:46:54;;;;;;;10.23;1.33;;;;;;;10.78;100.00;97890.03;5262265;28;20535;-74
2023/11/04 09:49:25;;;;;;;7.43;1.50;;;;;;;10.62;100.00;97887.06;5269829;28;20028;-74
2023/11/04 09:51:59;;;;;;;8.13;1.85;;;;;;;10.78;100.00;97882.00;5270241;28;20032;-73
2023/11/04 09:54:31;;;;;;;10.90;2.20;;;;;;;10.70;100.00;97872.47;5262200;28;20055;-73
2023/11/04 09:57:03;;;;;;;13.43;1.85;;;;;;;10.70;100.00;97860.94;5260240;28;20370;-73
2023/11/04 09:59:34;;;;;;;10.15;2.17;;;;;;;10.59;100.00;97847.34;5262412;28;20473;-73
2023/11/04 10:02:05;;;;;;;9.85;2.13;;;;;;;10.63;100.00;97840.44;5258543;28;20028;-73
2023/11/04 10:04:37;;;;;;;9.98;2.95;;;;;;;10.68;100.00;97839.72;5261857;28;20061;-73
2023/11/04 10:07:09;;;;;;;11.73;1.70;;;;;;;10.63;100.00;97824.34;5267474;28;20028;-73
2023/11/04 10:09:40;;;;;;;13.90;2.75;;;;;;;10.69;100.00;97813.72;5256205;28;20055;-73
2023/11/04 10:12:12;;;;;;;9.05;1.52;;;;;;;10.59;100.00;97814.34;5257830;28;20124;-73
2023/11/04 10:14:43;;;;;;;5.35;1.48;;;;;;;10.53;100.00;97794.66;5260711;28;20516;-72
2023/11/04 10:17:14;;;;;;;8.43;3.00;;;;;;;10.47;100.00;97787.59;5254961;28;20028;-72
2023/11/04 10:19:46;;;;;;;14.40;1.90;;;;;;;10.53;100.00;97781.28;5266504;28;20400;-72
2023/11/04 10:22:17;;;;;;;10.27;1.65;;;;;;;10.62;100.00;97773.66;5258313;28;20451;-72
2023/11/04 10:24:47;;;;;;;8.90;1.83;;;;;;;10.60;100.00;97765.06;5261546;28;20020;-72
2023/11/04 10:27:18;;;;;;;11.07;2.15;;;;;;;10.50;100.00;97752.28;5263298;28;20485;-72
2023/11/04 10:29:48;;;;;;;6.90;1.75;;;;;;;10.59;100.00;97737.44;5265227;28;20067;-72
2023/11/04 10:32:24;;;;;;;6.78;2.13;;;;;;;10.59;100.00;97721.34;5263430;28;20173;-72
2023/11/04 10:34:55;;;;;;;6.68;1.77;;;;;;;10.63;100.00;97706.38;5261701;28;20511;-72
2023/11/04 10:37:28;;;;;;;10.32;1.73;;;;;;;10.78;100.00;97687.06;5258037;28;20028;-72
2023/11/04 10:40:05;;;;;;;10.68;2.00;;;;;;;10.79;100.00;97680.66;5257520;28;20059;-72
2023/11/04 10:42:44;;;;;;;15.18;2.58;;;;;;;10.76;100.00;97662.38;5258384;28;20548;-72
2023/11/04 10:45:20;;;;;;;14.45;2.33;;;;;;;10.93;100.00;97651.63;5262347;28;20032;-72
2023/11/04 10:48:00;;;;;;;7.45;2.20;;;;;;;10.99;100.00;97639.09;5257837;28;20062;-72
2023/11/04 10:50:35;;;;;;;17.73;2.42;;;;;;;11.01;100.00;97623.56;5262662;28;20032;-72
2023/11/04 10:53:22;;;;;;;11.52;2.03;;;;;;;10.82;100.00;97609.63;5257318;28;20047;-72
2023/11/04 10:55:58;;;;;;;10.07;2.20;;;;;;;10.83;100.00;97595.97;5267885;28;20024;-72
2023/11/04 10:58:36;;;;;;;9.60;1.90;;;;;;;10.93;100.00;97581.88;5261901;28;20031;-72
2023/11/04 11:01:08;;;;;;;16.40;1.85;;;;;;;10.86;100.00;97567.84;5261377;28;20032;-72
2023/11/04 11:03:41;;;;;;;14.27;1.60;;;;;;;10.91;100.00;97559.88;5265134;28;20051;-72
2023/11/04 11:06:13;;;;;;;13.35;1.70;;;;;;;10.89;100.00;97557.47;5265265;28;20043;-72
2023/11/04 11:08:46;;;;;;;6.53;1.38;;;;;;;10.98;100.00;97551.63;5267366;28;20229;-72
2023/11/04 11:11:22;;;;;;;7.68;1.20;;;;;;;10.90;100.00;97542.19;5256496;28;20039;-72
2023/11/04 11:13:56;;;;;;;9.73;1.73;;;;;;;10.95;100.00;97526.16;5265115;28;20209;-72
2023/11/04 11:16:27;;;;;;;10.07;1.20;;;;;;;10.88;100.00;97504.03;5257042;28;20028;-72
2023/11/04 11:19:10;;;;;;;7.72;1.30;;;;;;;10.79;100.00;97489.44;5264386;28;20031;-72
2023/11/04 11:21:49;;;;;;;6.68;1.98;;;;;;;10.85;100.00;97486.59;5265137;28;20044;-72
2023/11/04 11:24:21;;;;;;;7.85;1.20;;;;;;;11.02;100.00;97483.03;5257394;28;20024;-72
2023/11/04 11:26:59;;;;;;;7.78;1.00;;;;;;;11.01;100.00;97476.88;5264748;28;20077;-72
2023/11/04 11:29:32;;;;;;;7.35;1.83;;;;;;;10.95;100.00;97467.16;5263307;28;20032;-72
2023/11/04 11:32:05;;;;;;;4.97;1.00;;;;;;;10.77;100.00;97451.38;5258489;28;20080;-72
2023/11/04 11:34:49;;;;;;;4.90;1.50;;;;;;;10.85;100.00;97432.97;5263309;28;20047;-73
2023/11/04 11:37:21;;;;;;;5.90;1.27;;;;;;;10.99;100.00;97436.06;5262424;28;20476;-73
2023/11/04 11:39:53;;;;;;;6.07;1.48;;;;;;;10.91;100.00;97428.47;5264473;28;20028;-74